AirNav   Air Wisconsin pilot careers
 
 496 users online  

40I Red Stewart Airfield
Waynesville, Ohio, USA

GOING TO WAYNESVILLE?


FAA INFORMATION EFFECTIVE 11 OCTOBER 2018

Location

FAA Identifier: 40I
Lat/Long: 39-30-19.2160N / 084-07-18.7650W
39-30.320267N / 084-07.312750W
39.5053378 / -84.1218792
(estimated)
Elevation: 955 ft. / 291 m (estimated)
Variation: 04W (1985)
From city: 2 miles SW of WAYNESVILLE, OH
Time zone: UTC -4 (UTC -5 during Standard Time)
Zip code: 45068

Airport Operations

Airport use: Open to the public
Activation date: 08/1948
Control tower: no
ARTCC: INDIANAPOLIS CENTER
FSS: DAYTON FLIGHT SERVICE STATION
NOTAMs facility: DAY (NOTAM-D service available)
Attendance: 0800-DUSK
Wind indicator: yes
Segmented circle: no

Airport Communications

CTAF: 122.9
COLUMBUS APPROACH: 118.85
COLUMBUS DEPARTURE: 118.85
IC CLASS C: 118.85
WX AWOS-3 at I68 (7 nm SW): 120.55 (513-934-5500)
WX ASOS at MGY (7 nm NW): 118.375 (937-885-2171)
WX AWOS-3 at I66 (12 nm E): 124.175 (937-382-1376)
WX AWOS-3 at I19 (13 nm NE): 118.525 (937-372-4668)
WX AWOS-3 at MWO (13 nm W): 120.025 (513-422-3505)
WX ASOS at ILN (16 nm E): PHONE 937-383-7334

Nearby radio navigation aids

VOR radial/distance  VOR name  Freq  Var
MXQr291/15.5MIDWEST VOR/DME112.9004W
SGHr217/23.6SPRINGFIELD VOR/DME113.2004W
DQNr159/33.2DAYTON VOR/DME114.5001W
RIDr117/36.4RICHMOND VORTAC110.6003W
CVGr047/39.9CINCINNATI VORTAC117.3004W

 
NDB name  Hdg/Dist  Freq  Var  ID
ONIDA119/10.322304WMW -- .--
CUBLA313/14.629904WHW .... .--
HOOK FIELD093/15.123904WHKF .... -.- ..-.
MADEIRA037/20.137904WMDE -- -.. .
CINCINNATI030/23.133504WLUK .-.. ..- -.-
SPORTYS014/26.124504WPWF .--. .-- ..-.
CLARK COUNTY220/27.234104WCCJ -.-. -.-. .---
HILLSBORO311/33.027805WHOC .... --- -.-.
COURT HOUSE266/34.341406WCSS -.-. ... ...

Airport Services

Fuel available: 100LL
Parking: hangars and tiedowns
Airframe service: MAJOR
Powerplant service: MAJOR

Runway Information

Runway 8/26

Dimensions: 3142 x 150 ft. / 958 x 46 m
Surface: turf, in good condition
Runway edge markings: DSPLCD THLD MKD WITH 3 OUTBOARD CONES ON EACH SIDE OF RY.
RUNWAY 8  RUNWAY 26
Gradient: 0.4%0.4%
Traffic pattern: leftleft
Displaced threshold: no540 ft.
Runway end identifier lights: nono
Obstructions: 98 ft. other, 2439 ft. from runway, 404 ft. left of centerline, 24:1 slope to clear
CROPS
15 ft. bldg, 129 ft. from runway, 105 ft. left of centerline, 8:1 slope to clear
RWY 26 APCH RATIO 15:1 TO DSPLCD THLD DUE TO +65 FT TREE 984 FT FR DSPLCD THLD.

Airport Ownership and Management from official FAA records

Ownership: Privately-owned
Owner: EMERSON C STEWART JR
4925 US 42
WAYNESVILLE, OH 45068
Phone 513-897-7717
Manager: EMERSON C STEWART JR
4925 US 42
WAYNESVILLE, OH 45068
Phone 513-897-7717

Airport Operational Statistics

Aircraft based on the field: 44
Single engine airplanes: 40
Gliders airplanes: 4
    
Aircraft operations: avg 46/day *
89% local general aviation
11% transient general aviation
* for 12-month period ending 04 August 2015

Additional Remarks

RYS & APRONS FAIR ROLLING TURF; SOD N & S OF RY USED AS TWY.
TSNT TFC 1 JAN-15 APRIL NOTIFICATION REQUIRED FOR RY COND PRIOR TO ARRIVAL 513-897-7717.
BANNER TOWING AND GLIDERS ON & INVOF ARPT.
GLIDER OPERATIONS ON NORTH TAXIWAY.
COLUMBUS APCH CD (614) 338-8537.

Instrument Procedures

There are no published instrument procedures at 40I.

Some nearby airports with instrument procedures:

I68 - Warren County Airport/John Lane Field (7 nm SW)
KMGY - Dayton-Wright Brothers Airport (7 nm NW)
I66 - Clinton Field Airport (12 nm E)
I19 - Greene County-Lewis A Jackson Regional Airport (13 nm NE)
KMWO - Middletown Regional Airport/Hook Field (13 nm W)
KILN - Wilmington Air Park (16 nm E)
KFFO - Wright-Patterson Air Force Base (20 nm N)
 
Loc | Ops | Rwys | IFR | FBO | Links
Com | Nav | Svcs | Stats | Notes


 
Area around 40I (Red Stewart Airfield)
 
Road maps at: MapQuest Bing Google
 
Aerial photo
WARNING: Photo may not be current or correct
Aerial photo of 40I (Red Stewart Airfield)
Photo by Samuel Weaver
Taken in the Summer of 2011
looking west.

Do you have a better or more recent aerial photo of Red Stewart Airfield that you would like to share? If so, please send us your photo.

 
Sectional chart

 
Airport distance calculator
Flying to Red Stewart Airfield? Find the distance to fly.

From to 40I

Sunrise and sunset
Times for 17-Oct-2018
 Local
(UTC-4)
 Zulu
(UTC)
Morning civil twilight07:2211:22
Sunrise07:5011:50
Sunset18:5422:54
Evening civil twilight19:2123:21

Current date and time
Zulu (UTC)  17-Oct-2018 10:24:53
Local (UTC-4)  17-Oct-2018 06:24:53
 
METAR
KI68 
7nm SW 
170955Z AUTO 25008KT 10SM CLR 05/05 A3017 RMK AO1 T00520047
KMGY 
8nm NW 
170953Z AUTO 24008KT 10SM CLR 06/02 A3016 RMK AO2 SLP215 T00610017
KMWO 
13nm W 
170955Z AUTO 22004KT 10SM CLR 04/02 A3019 RMK AO2 T00350023
KILN 
16nm E 
170954Z AUTO 24008KT 10SM CLR 03/02 A3015 RMK AO2 SLP226 T00330017
KFFO 
19nm N 
170956Z AUTO 22008KT 10SM CLR 04/02 A3015 RMK AO2 SLP217 T00430018 $
TAF
KILN 
16nm E 
170538Z 1706/1806 24007KT P6SM SCT250 FM171400 27012G20KT P6SM SCT100 FM171700 29016G24KT P6SM SCT050 FM172300 31009KT P6SM SKC
KFFO 
19nm N 
170300Z 1703/1809 24009KT 9999 SKC QNH3014INS BECMG 1714/1715 29015G25KT 9999 SCT040 QNH3020INS BECMG 1723/1724 32009KT 9999 SCT030 QNH3041INS TX11/1718Z TN04/1710Z
NOTAMs
Click for the latest NOTAMs
NOTAMs are issued by the DoD/FAA and will open in a separate window not controlled by AirNav.

 

 
 

FBO, Fuel Providers, and Aircraft Ground Support

  
 Business Name 
 
 Contact 
 
 Services / Description 
 
Fuel Prices
 
Comments
  
Stewart's Aircraft Service 513-897-7717
no information available

If you are affiliated with Stewart's Aircraft Service and would like to show here your services, contact info, web link, logo, and more, click here
100LL
SS $4.99 
 Updated 12-Oct-2018
 
   1 read write
SS=Self service
Update Fuel Prices
 

Would you like to see your business listed on this page?

 If your business provides an interesting product or service to pilots, flight crews, aircraft, or users of the Red Stewart Airfield, you should consider listing it here.  To start the listing process, click on the button below
 
Add a business
 

Other Pages about Red Stewart Airfield

Update a link
 
Copyright © AirNav, LLC. All rights reserved. Privacy Policy  Contact